createdAt,value
2022-09-09T00:00:03.481Z,13.70
2022-09-09T00:01:03.399Z,13.70
2022-09-09T00:02:03.478Z,13.70
2022-09-09T00:03:03.635Z,13.70
2022-09-09T00:04:03.515Z,13.70
2022-09-09T00:05:03.516Z,13.60
2022-09-09T00:06:03.563Z,13.60
2022-09-09T00:07:03.668Z,13.60
2022-09-09T00:08:03.571Z,13.60
2022-09-09T00:09:02.610Z,13.60
2022-09-09T00:10:02.995Z,13.60
2022-09-09T00:11:02.848Z,13.60
2022-09-09T00:12:02.865Z,13.60
2022-09-09T00:13:02.923Z,13.60
2022-09-09T00:14:02.837Z,13.60
2022-09-09T00:15:02.873Z,13.70
2022-09-09T00:16:02.899Z,13.70
2022-09-09T00:17:02.969Z,13.70
2022-09-09T00:18:02.974Z,13.70
2022-09-09T00:19:03.022Z,13.80
2022-09-09T00:20:03.067Z,13.80
2022-09-09T00:21:03.131Z,13.80
2022-09-09T00:22:03.289Z,13.80
2022-09-09T00:23:03.302Z,13.80
2022-09-09T00:24:03.298Z,13.80
2022-09-09T00:25:03.319Z,13.90
2022-09-09T00:26:03.377Z,13.90
2022-09-09T00:27:03.398Z,13.90
2022-09-09T00:28:03.531Z,13.90
2022-09-09T00:29:03.429Z,13.90
2022-09-09T00:30:02.676Z,13.90
2022-09-09T00:31:02.734Z,13.90
2022-09-09T00:32:02.750Z,13.80
2022-09-09T00:33:02.798Z,13.90
2022-09-09T00:34:02.856Z,13.90
2022-09-09T00:35:02.883Z,13.90
2022-09-09T00:36:02.871Z,13.90
2022-09-09T00:37:02.909Z,13.90
2022-09-09T00:38:02.909Z,13.90
2022-09-09T00:39:02.966Z,13.90
2022-09-09T00:40:03.475Z,13.90
2022-09-09T00:41:03.657Z,13.90
2022-09-09T00:42:02.650Z,13.90
2022-09-09T00:43:02.692Z,13.90
2022-09-09T00:44:02.735Z,13.90
2022-09-09T00:45:02.801Z,13.90
2022-09-09T00:46:02.822Z,13.90
2022-09-09T00:47:02.911Z,13.90
2022-09-09T00:48:02.883Z,13.90
2022-09-09T00:49:02.934Z,13.90
2022-09-09T00:50:02.995Z,13.90
2022-09-09T00:51:03.145Z,13.90
2022-09-09T00:52:03.114Z,13.90
2022-09-09T00:53:03.147Z,13.90
2022-09-09T00:54:03.170Z,13.90
2022-09-09T00:55:03.200Z,13.90
2022-09-09T00:56:03.233Z,13.90
2022-09-09T00:57:03.354Z,13.90
2022-09-09T00:58:03.492Z,13.90
2022-09-09T00:59:03.488Z,14.00
2022-09-09T01:00:02.596Z,14.00
2022-09-09T01:01:02.792Z,14.00
2022-09-09T01:02:02.802Z,14.00
2022-09-09T01:03:02.878Z,14.00
2022-09-09T01:04:02.908Z,14.00
2022-09-09T01:05:02.901Z,14.00
2022-09-09T01:06:03.062Z,14.00
2022-09-09T01:07:02.986Z,14.00
2022-09-09T01:08:03.104Z,14.00
2022-09-09T01:09:03.256Z,14.10
2022-09-09T01:10:03.185Z,14.10
2022-09-09T01:11:02.765Z,14.10
2022-09-09T01:12:02.753Z,14.10
2022-09-09T01:13:02.814Z,14.20
2022-09-09T01:14:02.843Z,14.20
2022-09-09T01:15:02.931Z,14.20
2022-09-09T01:16:02.996Z,14.20
2022-09-09T01:17:03.056Z,14.20
2022-09-09T01:18:03.160Z,14.20
2022-09-09T01:19:03.145Z,14.20
2022-09-09T01:20:08.281Z,14.20
2022-09-09T01:21:03.218Z,14.20
2022-09-09T01:22:03.269Z,14.20
2022-09-09T01:23:03.212Z,14.20
2022-09-09T01:24:03.295Z,14.20
2022-09-09T01:25:03.308Z,14.20
2022-09-09T01:26:03.318Z,14.20
2022-09-09T01:27:03.361Z,14.20
2022-09-09T01:28:03.371Z,14.10
2022-09-09T01:29:03.478Z,14.10
2022-09-09T01:30:02.682Z,14.10
2022-09-09T01:31:02.802Z,14.10
2022-09-09T01:32:02.886Z,14.10
2022-09-09T01:33:03.058Z,14.10
2022-09-09T01:34:03.125Z,14.10
2022-09-09T01:35:03.101Z,14.10
2022-09-09T01:36:03.114Z,14.10
2022-09-09T01:37:03.267Z,14.10
2022-09-09T01:38:03.276Z,14.10
2022-09-09T01:39:03.393Z,14.10
2022-09-09T01:40:03.382Z,14.00
2022-09-09T01:41:03.437Z,14.00
2022-09-09T01:42:03.369Z,14.00
2022-09-09T01:43:03.417Z,14.00
2022-09-09T01:44:02.769Z,14.00
2022-09-09T01:45:02.805Z,14.00
2022-09-09T01:46:02.819Z,14.00
2022-09-09T01:47:02.742Z,14.00
2022-09-09T01:48:02.714Z,14.00
2022-09-09T01:49:02.814Z,14.00
2022-09-09T01:50:03.542Z,14.00
2022-09-09T01:51:03.593Z,14.00
2022-09-09T01:52:02.659Z,14.00
2022-09-09T01:53:02.742Z,14.00
2022-09-09T01:54:02.824Z,14.00
2022-09-09T01:55:02.952Z,14.00
2022-09-09T01:56:02.981Z,14.00
2022-09-09T01:57:02.970Z,14.00
2022-09-09T01:58:02.961Z,14.00
2022-09-09T01:59:03.018Z,14.00
2022-09-09T02:00:03.132Z,13.90
2022-09-09T02:01:03.272Z,13.90
2022-09-09T02:02:03.291Z,13.90
2022-09-09T02:03:03.358Z,13.90
2022-09-09T02:04:03.495Z,13.90
2022-09-09T02:05:03.440Z,13.90
2022-09-09T02:06:03.572Z,13.90
2022-09-09T02:07:02.737Z,13.90
2022-09-09T02:08:02.799Z,13.90
2022-09-09T02:09:02.955Z,13.90
2022-09-09T02:10:03.074Z,13.90
2022-09-09T02:11:03.214Z,13.90
2022-09-09T02:12:03.243Z,13.90
2022-09-09T02:13:03.249Z,13.80
2022-09-09T02:14:03.212Z,13.80
2022-09-09T02:15:03.253Z,13.80
2022-09-09T02:16:03.272Z,13.80
2022-09-09T02:17:03.367Z,13.80
2022-09-09T02:18:03.297Z,13.80
2022-09-09T02:19:03.500Z,13.80
2022-09-09T02:20:03.454Z,13.80
2022-09-09T02:21:03.506Z,13.70
2022-09-09T02:22:02.670Z,13.70
2022-09-09T02:23:02.841Z,13.70
2022-09-09T02:24:02.846Z,13.70
2022-09-09T02:25:02.887Z,13.70
2022-09-09T02:26:03.005Z,13.70
2022-09-09T02:27:02.951Z,13.70
2022-09-09T02:28:03.070Z,13.70
2022-09-09T02:29:03.072Z,13.70
2022-09-09T02:30:03.148Z,13.70
2022-09-09T02:31:03.203Z,13.70
2022-09-09T02:32:03.138Z,13.60
2022-09-09T02:33:03.155Z,13.60
2022-09-09T02:34:03.180Z,13.60
2022-09-09T02:35:03.292Z,13.60
2022-09-09T02:36:03.249Z,13.60
2022-09-09T02:37:03.206Z,13.60
2022-09-09T02:38:03.253Z,13.60
2022-09-09T02:39:03.259Z,13.60
2022-09-09T02:40:03.410Z,13.60
2022-09-09T02:41:03.481Z,13.60
2022-09-09T02:42:03.566Z,13.70
2022-09-09T02:43:03.540Z,13.70
2022-09-09T02:44:02.621Z,13.70
2022-09-09T02:45:02.801Z,13.70
2022-09-09T02:46:02.872Z,13.70
2022-09-09T02:47:02.917Z,13.80
2022-09-09T02:48:02.923Z,13.80
2022-09-09T02:49:02.955Z,13.80
2022-09-09T02:50:02.834Z,13.80
2022-09-09T02:51:02.832Z,13.90
2022-09-09T02:52:03.029Z,13.90
2022-09-09T02:53:03.412Z,13.90
2022-09-09T02:54:03.428Z,13.90
2022-09-09T02:55:03.427Z,13.90
2022-09-09T02:56:03.465Z,13.90
2022-09-09T02:57:03.601Z,13.90
2022-09-09T02:58:02.632Z,13.90
2022-09-09T02:59:02.746Z,13.90
2022-09-09T03:00:02.796Z,13.90
2022-09-09T03:01:03.061Z,13.90
2022-09-09T03:02:03.147Z,13.90
2022-09-09T03:03:03.129Z,14.00
2022-09-09T03:04:03.188Z,14.00
2022-09-09T03:05:03.297Z,13.90
2022-09-09T03:06:03.327Z,14.00
2022-09-09T03:07:03.312Z,14.00
2022-09-09T03:08:03.408Z,14.00
2022-09-09T03:09:03.483Z,14.00
2022-09-09T03:10:03.502Z,14.00
2022-09-09T03:11:02.757Z,14.00
2022-09-09T03:12:02.707Z,14.00
2022-09-09T03:13:03.046Z,14.00
2022-09-09T03:14:03.013Z,14.00
2022-09-09T03:15:03.178Z,14.00
2022-09-09T03:16:03.321Z,14.00
2022-09-09T03:17:03.407Z,14.00
2022-09-09T03:18:03.520Z,14.00
2022-09-09T03:19:02.710Z,14.00
2022-09-09T03:20:02.682Z,13.90
2022-09-09T03:21:02.632Z,13.90
2022-09-09T03:22:02.745Z,13.90
2022-09-09T03:23:02.826Z,13.90
2022-09-09T03:24:03.481Z,13.90
2022-09-09T03:25:03.638Z,13.90
2022-09-09T03:26:03.580Z,13.90
2022-09-09T03:27:02.652Z,13.90
2022-09-09T03:28:02.775Z,13.90
2022-09-09T03:29:02.778Z,13.90
2022-09-09T03:30:02.809Z,13.90
2022-09-09T03:31:02.819Z,13.90
2022-09-09T03:32:03.021Z,13.90
2022-09-09T03:33:02.984Z,13.80
2022-09-09T03:34:03.083Z,13.80
2022-09-09T03:35:03.103Z,13.80
2022-09-09T03:36:03.121Z,13.80
2022-09-09T03:37:03.193Z,13.80
2022-09-09T03:38:03.350Z,13.80
2022-09-09T03:39:03.436Z,13.80
2022-09-09T03:40:03.622Z,13.80
2022-09-09T03:41:02.673Z,13.70
2022-09-09T03:42:02.785Z,13.70
2022-09-09T03:43:02.762Z,13.70
2022-09-09T03:44:02.855Z,13.70
2022-09-09T03:45:02.857Z,13.70
2022-09-09T03:46:02.911Z,13.70
2022-09-09T03:47:02.905Z,13.70
2022-09-09T03:48:02.957Z,13.70
2022-09-09T03:49:02.960Z,13.70
2022-09-09T03:50:02.978Z,13.70
2022-09-09T03:51:03.004Z,13.70
2022-09-09T03:52:03.052Z,13.70
2022-09-09T03:53:03.112Z,13.70
2022-09-09T03:54:03.173Z,13.70
2022-09-09T03:55:03.165Z,13.70
2022-09-09T03:56:03.215Z,13.70
2022-09-09T03:57:03.298Z,13.70
2022-09-09T03:58:03.333Z,13.70
2022-09-09T03:59:03.338Z,13.70
2022-09-09T04:00:03.444Z,13.70
2022-09-09T04:01:03.547Z,13.70
2022-09-09T04:02:02.941Z,13.70
2022-09-09T04:03:03.063Z,13.70
2022-09-09T04:04:03.048Z,13.70
2022-09-09T04:05:03.056Z,13.70
2022-09-09T04:06:03.223Z,13.70
2022-09-09T04:07:03.246Z,13.70
2022-09-09T04:08:03.340Z,13.70
2022-09-09T04:09:03.485Z,13.70
2022-09-09T04:10:03.506Z,13.70
2022-09-09T04:11:03.603Z,13.70
2022-09-09T04:12:02.660Z,13.70
2022-09-09T04:13:02.707Z,13.70
2022-09-09T04:14:02.680Z,13.80
2022-09-09T04:15:02.780Z,13.80
2022-09-09T04:16:03.298Z,13.80
2022-09-09T04:17:03.464Z,13.80
2022-09-09T04:18:03.476Z,13.80
2022-09-09T04:19:03.460Z,13.80
2022-09-09T04:20:03.511Z,13.80
2022-09-09T04:21:03.442Z,13.80
2022-09-09T04:22:03.455Z,13.80
2022-09-09T04:23:03.461Z,13.90
2022-09-09T04:24:03.615Z,13.90
2022-09-09T04:25:03.240Z,13.90
2022-09-09T04:26:03.071Z,13.90
2022-09-09T04:27:03.109Z,13.90
2022-09-09T04:28:03.197Z,13.90
2022-09-09T04:29:03.204Z,13.90
2022-09-09T04:30:03.311Z,13.90
2022-09-09T04:31:03.403Z,13.90
2022-09-09T04:32:03.452Z,13.90
2022-09-09T04:33:03.389Z,13.90
2022-09-09T04:34:03.431Z,13.90
2022-09-09T04:35:03.435Z,14.00
2022-09-09T04:36:03.562Z,14.00
2022-09-09T04:37:03.526Z,14.00
2022-09-09T04:38:03.595Z,14.00
2022-09-09T04:39:03.594Z,14.00
2022-09-09T04:40:02.714Z,14.00
2022-09-09T04:41:02.827Z,14.00
2022-09-09T04:42:02.755Z,14.00
2022-09-09T04:43:02.824Z,14.00
2022-09-09T04:44:02.796Z,14.00
2022-09-09T04:45:02.811Z,14.00
2022-09-09T04:46:02.893Z,14.00
2022-09-09T04:47:02.805Z,14.00
2022-09-09T04:48:02.924Z,14.00
2022-09-09T04:49:02.945Z,14.00
2022-09-09T04:50:02.882Z,14.00
2022-09-09T04:51:02.972Z,14.00
2022-09-09T04:52:02.942Z,14.00
2022-09-09T04:53:02.953Z,14.00
2022-09-09T04:54:02.879Z,14.00
2022-09-09T04:55:02.793Z,14.00
2022-09-09T04:56:02.902Z,13.90
2022-09-09T04:57:03.116Z,14.00
2022-09-09T04:58:03.150Z,14.00
2022-09-09T04:59:03.206Z,13.90
2022-09-09T05:00:03.099Z,13.90
2022-09-09T05:01:03.272Z,13.90
2022-09-09T05:02:03.253Z,13.90
2022-09-09T05:03:03.251Z,13.90
2022-09-09T05:04:03.314Z,13.90
2022-09-09T05:05:03.428Z,14.00
2022-09-09T05:06:03.576Z,14.00
2022-09-09T05:07:03.535Z,13.90
2022-09-09T05:08:03.612Z,14.00
2022-09-09T05:09:02.703Z,14.00
2022-09-09T05:10:02.876Z,14.00
2022-09-09T05:11:02.955Z,14.00
2022-09-09T05:12:02.888Z,14.00
2022-09-09T05:13:02.918Z,14.00
2022-09-09T05:14:03.048Z,14.00
2022-09-09T05:15:02.923Z,14.00
2022-09-09T05:16:03.118Z,14.10
2022-09-09T05:17:03.079Z,14.10
2022-09-09T05:18:03.177Z,14.10
2022-09-09T05:19:03.141Z,14.10
2022-09-09T05:20:05.635Z,14.20
2022-09-09T05:21:03.314Z,14.20
2022-09-09T05:22:03.504Z,14.30
2022-09-09T05:23:03.576Z,14.30
2022-09-09T05:24:03.495Z,14.30
2022-09-09T05:25:03.623Z,14.40
2022-09-09T05:26:03.598Z,14.40
2022-09-09T05:27:03.632Z,14.40
2022-09-09T05:28:03.305Z,14.50
2022-09-09T05:29:03.357Z,14.50
2022-09-09T05:30:03.487Z,14.50
2022-09-09T05:31:03.527Z,14.50
2022-09-09T05:32:03.669Z,14.50
2022-09-09T05:33:02.696Z,14.60
2022-09-09T05:34:02.747Z,14.60
2022-09-09T05:35:02.778Z,14.60
2022-09-09T05:36:02.821Z,14.60
2022-09-09T05:37:02.813Z,14.70
2022-09-09T05:38:02.809Z,14.70
2022-09-09T05:39:02.738Z,14.70
2022-09-09T05:40:02.795Z,14.70
2022-09-09T05:41:02.745Z,14.70
2022-09-09T05:42:02.852Z,14.70
2022-09-09T05:43:02.970Z,14.70
2022-09-09T05:44:03.317Z,14.70
2022-09-09T05:45:03.293Z,14.70
2022-09-09T05:46:03.380Z,14.70
2022-09-09T05:47:03.592Z,14.70
2022-09-09T05:48:03.640Z,14.70
2022-09-09T05:49:02.681Z,14.70
2022-09-09T05:50:02.823Z,14.70
2022-09-09T05:51:02.847Z,14.70
2022-09-09T05:52:02.848Z,14.70
2022-09-09T05:53:03.017Z,14.70
2022-09-09T05:54:03.008Z,14.70
2022-09-09T05:55:03.034Z,14.70
2022-09-09T05:56:03.038Z,14.70
2022-09-09T05:57:03.099Z,14.70
2022-09-09T05:58:03.104Z,14.70
2022-09-09T05:59:03.069Z,14.70
2022-09-09T06:00:03.141Z,14.70
2022-09-09T06:01:03.098Z,14.70
2022-09-09T06:02:03.290Z,14.80
2022-09-09T06:03:03.342Z,14.80
2022-09-09T06:04:03.268Z,14.80
2022-09-09T06:05:03.228Z,14.80
2022-09-09T06:06:03.394Z,14.80
2022-09-09T06:07:03.414Z,14.80
2022-09-09T06:08:03.469Z,14.80
2022-09-09T06:09:03.470Z,14.90
2022-09-09T06:10:02.629Z,14.90
2022-09-09T06:11:02.787Z,14.90
2022-09-09T06:12:02.791Z,14.90
2022-09-09T06:13:02.897Z,14.90
2022-09-09T06:14:03.030Z,14.90
2022-09-09T06:15:03.118Z,15.00
2022-09-09T06:16:03.180Z,15.00
2022-09-09T06:17:03.127Z,15.00
2022-09-09T06:18:03.115Z,15.00
2022-09-09T06:19:03.250Z,15.00
2022-09-09T06:20:03.406Z,15.00
2022-09-09T06:21:03.426Z,15.10
2022-09-09T06:22:03.436Z,15.10
2022-09-09T06:23:03.456Z,15.10
2022-09-09T06:24:03.600Z,15.10
2022-09-09T06:25:02.697Z,15.10
2022-09-09T06:26:02.782Z,15.10
2022-09-09T06:27:02.892Z,15.10
2022-09-09T06:28:02.817Z,15.10
2022-09-09T06:29:02.985Z,15.10
2022-09-09T06:30:03.104Z,15.10
2022-09-09T06:31:03.085Z,15.20
2022-09-09T06:32:03.022Z,15.20
2022-09-09T06:33:03.109Z,15.20
2022-09-09T06:34:03.205Z,15.20
2022-09-09T06:35:03.160Z,15.20
2022-09-09T06:36:03.211Z,15.20
2022-09-09T06:37:03.334Z,15.30
2022-09-09T06:38:03.378Z,15.30
2022-09-09T06:39:03.397Z,15.30
2022-09-09T06:40:03.482Z,15.30
2022-09-09T06:41:03.398Z,15.40
2022-09-09T06:42:03.527Z,15.40
2022-09-09T06:43:03.438Z,15.50
2022-09-09T06:44:03.550Z,15.50
2022-09-09T06:45:03.536Z,15.50
2022-09-09T06:46:03.509Z,15.60
2022-09-09T06:47:03.577Z,15.60
2022-09-09T06:48:03.548Z,15.70
2022-09-09T06:49:03.616Z,15.80
2022-09-09T06:50:02.650Z,15.90
2022-09-09T06:51:02.753Z,16.00
2022-09-09T06:52:02.765Z,16.10
2022-09-09T06:53:02.661Z,16.10
2022-09-09T06:54:02.626Z,16.20
2022-09-09T06:55:02.690Z,16.20
2022-09-09T06:56:02.868Z,16.30
2022-09-09T06:57:15.628Z,16.30
2022-09-09T06:58:02.932Z,16.30
2022-09-09T06:59:02.884Z,16.40
2022-09-09T07:00:02.921Z,16.40
2022-09-09T07:01:02.907Z,16.40
2022-09-09T07:02:02.923Z,16.40
2022-09-09T07:03:03.029Z,16.40
2022-09-09T07:04:03.143Z,16.40
2022-09-09T07:05:03.132Z,16.40
2022-09-09T07:06:03.097Z,16.40
2022-09-09T07:07:03.176Z,16.40
2022-09-09T07:08:03.181Z,16.40
2022-09-09T07:09:03.367Z,16.40
2022-09-09T07:10:03.470Z,16.40
2022-09-09T07:11:03.557Z,16.40
2022-09-09T07:12:02.654Z,16.40
2022-09-09T07:13:02.867Z,16.40
2022-09-09T07:14:02.964Z,16.40
2022-09-09T07:15:02.917Z,16.40
2022-09-09T07:16:03.030Z,16.40
2022-09-09T07:17:03.008Z,16.40
2022-09-09T07:18:03.075Z,16.40
2022-09-09T07:19:02.976Z,16.50
2022-09-09T07:20:03.015Z,16.40
2022-09-09T07:21:03.062Z,16.50
2022-09-09T07:22:03.070Z,16.40
2022-09-09T07:23:03.139Z,16.50
2022-09-09T07:24:03.271Z,16.50
2022-09-09T07:25:03.216Z,16.50
2022-09-09T07:26:03.260Z,16.50
2022-09-09T07:27:03.241Z,16.60
2022-09-09T07:28:03.445Z,16.60
2022-09-09T07:29:03.434Z,16.70
2022-09-09T07:30:03.486Z,16.70
2022-09-09T07:31:02.649Z,16.70
2022-09-09T07:32:02.656Z,16.80
2022-09-09T07:33:02.659Z,16.80
2022-09-09T07:34:02.830Z,16.90
2022-09-09T07:35:02.921Z,16.90
2022-09-09T07:36:02.851Z,16.90
2022-09-09T07:37:02.840Z,16.90
2022-09-09T07:38:02.843Z,17.00
2022-09-09T07:39:02.817Z,17.00
2022-09-09T07:40:02.911Z,17.00
2022-09-09T07:41:03.369Z,17.00
2022-09-09T07:42:03.467Z,17.00
2022-09-09T07:43:03.507Z,17.10
2022-09-09T07:44:03.587Z,17.10
2022-09-09T07:45:02.742Z,17.10
2022-09-09T07:46:02.763Z,17.10
2022-09-09T07:47:02.914Z,17.10
2022-09-09T07:48:03.097Z,17.20
2022-09-09T07:49:03.083Z,17.20
2022-09-09T07:50:03.101Z,17.20
2022-09-09T07:51:03.169Z,17.20
2022-09-09T07:52:03.263Z,17.20
2022-09-09T07:53:03.269Z,17.20
2022-09-09T07:54:03.211Z,17.20
2022-09-09T07:55:03.347Z,17.30
2022-09-09T07:56:04.025Z,17.30
2022-09-09T07:57:03.585Z,17.30
2022-09-09T07:58:02.670Z,17.30
2022-09-09T07:59:02.720Z,17.40
2022-09-09T08:00:02.844Z,17.40
2022-09-09T08:01:02.850Z,17.40
2022-09-09T08:02:02.943Z,17.50
2022-09-09T08:03:03.018Z,17.60
2022-09-09T08:04:03.005Z,17.60
2022-09-09T08:05:03.031Z,17.70
2022-09-09T08:06:03.076Z,17.80
2022-09-09T08:07:03.072Z,17.90
2022-09-09T08:08:03.201Z,17.90
2022-09-09T08:09:03.179Z,18.00
2022-09-09T08:10:03.173Z,18.00
2022-09-09T08:11:03.227Z,18.00
2022-09-09T08:12:03.235Z,18.10
2022-09-09T08:13:17.160Z,18.10
2022-09-09T08:14:03.330Z,18.20
2022-09-09T08:15:03.361Z,18.20
2022-09-09T08:16:03.374Z,18.20
2022-09-09T08:17:03.450Z,18.30
2022-09-09T08:18:03.433Z,18.30
2022-09-09T08:19:03.492Z,18.30
2022-09-09T08:20:03.513Z,18.30
2022-09-09T08:21:03.537Z,18.30
2022-09-09T08:22:03.458Z,18.30
2022-09-09T08:23:03.573Z,18.30
2022-09-09T08:24:03.587Z,18.40
2022-09-09T08:25:02.702Z,18.40
2022-09-09T08:26:02.686Z,18.40
2022-09-09T08:27:02.777Z,18.40
2022-09-09T08:28:02.733Z,18.40
2022-09-09T08:29:02.824Z,18.50
2022-09-09T08:30:02.833Z,18.50
2022-09-09T08:31:02.933Z,18.50
2022-09-09T08:32:02.858Z,18.50
2022-09-09T08:33:02.796Z,18.50
2022-09-09T08:34:02.857Z,18.50
2022-09-09T08:35:07.968Z,18.50
2022-09-09T08:36:02.992Z,18.50
2022-09-09T08:37:03.108Z,18.50
2022-09-09T08:38:05.482Z,18.50
2022-09-09T08:39:03.287Z,18.60
2022-09-09T08:40:03.503Z,18.60
2022-09-09T08:41:03.394Z,18.60
2022-09-09T08:42:03.414Z,18.60
2022-09-09T08:43:03.512Z,18.60
2022-09-09T08:44:03.503Z,18.70
2022-09-09T08:45:03.547Z,18.70
2022-09-09T08:46:03.616Z,18.70
2022-09-09T08:47:02.770Z,18.70
2022-09-09T08:48:02.768Z,18.80
2022-09-09T08:49:02.805Z,18.80
2022-09-09T08:50:02.748Z,18.80
2022-09-09T08:51:02.905Z,18.80
2022-09-09T08:52:02.767Z,18.80
2022-09-09T08:53:02.926Z,18.80
2022-09-09T08:54:02.862Z,18.90
2022-09-09T08:55:02.822Z,18.90
2022-09-09T08:56:03.001Z,18.90
2022-09-09T08:57:03.035Z,18.90
2022-09-09T08:58:03.056Z,18.90
2022-09-09T08:59:03.175Z,18.90
2022-09-09T09:00:03.142Z,18.90
2022-09-09T09:01:03.064Z,18.90
2022-09-09T09:02:03.140Z,18.90
2022-09-09T09:03:03.021Z,18.90
2022-09-09T09:04:03.117Z,18.90
2022-09-09T09:05:03.143Z,19.00
2022-09-09T09:06:03.181Z,19.00
2022-09-09T09:07:03.194Z,19.00
2022-09-09T09:08:03.176Z,19.00
2022-09-09T09:09:03.324Z,19.00
2022-09-09T09:10:03.357Z,19.10
2022-09-09T09:11:03.434Z,19.10
2022-09-09T09:12:03.484Z,19.10
2022-09-09T09:13:03.523Z,19.10
2022-09-09T09:14:02.647Z,19.10
2022-09-09T09:15:02.809Z,19.20
2022-09-09T09:16:02.808Z,19.20
2022-09-09T09:17:02.833Z,19.20
2022-09-09T09:18:02.753Z,19.20
2022-09-09T09:19:02.873Z,19.20
2022-09-09T09:20:03.089Z,19.20
2022-09-09T09:21:03.132Z,19.20
2022-09-09T09:22:03.118Z,19.20
2022-09-09T09:23:03.151Z,19.20
2022-09-09T09:24:03.158Z,19.20
2022-09-09T09:25:03.315Z,19.20
2022-09-09T09:26:03.326Z,19.30
2022-09-09T09:27:03.348Z,19.30
2022-09-09T09:28:03.572Z,19.30
2022-09-09T09:29:03.640Z,19.30
2022-09-09T09:30:22.798Z,19.30
2022-09-09T09:31:02.761Z,19.30
2022-09-09T09:32:02.750Z,19.30
2022-09-09T09:33:02.847Z,19.30
2022-09-09T09:34:02.887Z,19.30
2022-09-09T09:35:02.769Z,19.40
2022-09-09T09:36:02.814Z,19.40
2022-09-09T09:37:03.035Z,19.40
2022-09-09T09:40:03.356Z,19.40
2022-09-09T09:41:03.234Z,19.40
2022-09-09T09:42:05.026Z,19.40
2022-09-09T09:43:03.364Z,19.50
2022-09-09T09:44:03.557Z,19.50
2022-09-09T09:45:03.632Z,19.50
2022-09-09T09:46:17.438Z,19.50
2022-09-09T09:47:02.781Z,19.50
2022-09-09T09:48:06.765Z,19.50
2022-09-09T09:49:02.751Z,19.60
2022-09-09T09:50:02.866Z,19.60
2022-09-09T09:51:02.874Z,19.60
2022-09-09T09:52:02.858Z,19.60
2022-09-09T09:53:02.855Z,19.60
2022-09-09T09:54:02.854Z,19.60
2022-09-09T09:55:05.371Z,19.70
2022-09-09T09:56:03.026Z,19.70
2022-09-09T09:57:02.945Z,19.80
2022-09-09T09:58:02.986Z,19.80
2022-09-09T09:59:06.051Z,19.90
2022-09-09T10:00:03.113Z,19.90
2022-09-09T10:01:03.101Z,20.00
2022-09-09T10:02:03.044Z,20.10
2022-09-09T10:03:03.154Z,20.10
2022-09-09T10:04:03.131Z,20.20
2022-09-09T10:05:03.237Z,20.20
2022-09-09T10:06:03.258Z,20.20
2022-09-09T10:07:03.234Z,20.20
2022-09-09T10:08:03.335Z,20.20
2022-09-09T10:09:03.397Z,20.20
2022-09-09T10:10:03.485Z,20.20
2022-09-09T10:11:03.424Z,20.30
2022-09-09T10:12:03.586Z,20.30
2022-09-09T10:13:03.600Z,20.30
2022-09-09T10:14:03.635Z,20.40
2022-09-09T10:15:02.655Z,20.40
2022-09-09T10:16:05.290Z,20.50
2022-09-09T10:17:02.813Z,20.50
2022-09-09T10:18:02.924Z,20.60
2022-09-09T10:19:02.899Z,20.60
2022-09-09T10:20:03.015Z,20.60
2022-09-09T10:21:03.069Z,20.60
2022-09-09T10:22:03.203Z,20.70
2022-09-09T10:23:03.326Z,20.70
2022-09-09T10:24:03.316Z,20.70
2022-09-09T10:25:03.503Z,20.80
2022-09-09T10:26:02.658Z,20.80
2022-09-09T10:27:02.702Z,20.90
2022-09-09T10:28:06.169Z,21.00
2022-09-09T10:29:02.824Z,21.00
2022-09-09T10:30:02.959Z,21.10
2022-09-09T10:31:02.971Z,21.20
2022-09-09T10:32:02.907Z,21.30
2022-09-09T10:33:02.879Z,21.30
2022-09-09T10:34:03.007Z,21.40
2022-09-09T10:35:03.050Z,21.40
2022-09-09T10:36:02.973Z,21.50
2022-09-09T10:37:03.148Z,21.50
2022-09-09T10:38:03.095Z,21.50
2022-09-09T10:39:03.333Z,21.50
2022-09-09T10:40:03.366Z,21.50
2022-09-09T10:41:03.295Z,21.60
2022-09-09T10:42:03.394Z,21.60
2022-09-09T10:43:03.383Z,21.70
2022-09-09T10:44:03.435Z,21.80
2022-09-09T10:45:03.619Z,21.80
2022-09-09T10:46:03.643Z,21.80
2022-09-09T10:47:07.992Z,21.90
2022-09-09T10:48:02.744Z,21.90
2022-09-09T10:49:02.808Z,21.90
2022-09-09T10:50:02.910Z,21.90
2022-09-09T10:51:04.488Z,21.90
2022-09-09T10:52:02.892Z,21.80
2022-09-09T10:53:02.887Z,21.80
2022-09-09T10:54:02.922Z,21.80
2022-09-09T10:55:03.034Z,21.70
2022-09-09T10:56:03.165Z,21.70
2022-09-09T10:57:03.287Z,21.70
2022-09-09T10:58:03.351Z,21.60
2022-09-09T10:59:03.347Z,21.60
2022-09-09T11:00:03.452Z,21.60
2022-09-09T11:01:03.564Z,21.60
2022-09-09T11:02:03.765Z,21.70
2022-09-09T11:03:02.649Z,21.70
2022-09-09T11:04:02.800Z,21.80
2022-09-09T11:05:02.926Z,21.80
2022-09-09T11:06:03.056Z,21.90
2022-09-09T11:07:02.989Z,22.00
2022-09-09T11:08:03.083Z,22.00
2022-09-09T11:09:02.957Z,22.00
2022-09-09T11:10:02.973Z,22.10
2022-09-09T11:11:03.487Z,22.10
2022-09-09T11:12:03.607Z,22.10
2022-09-09T11:13:03.605Z,22.20
2022-09-09T11:14:02.741Z,22.20
2022-09-09T11:15:02.786Z,22.20
2022-09-09T11:16:02.769Z,22.20
2022-09-09T11:17:03.047Z,22.30
2022-09-09T11:18:02.990Z,22.30
2022-09-09T11:19:02.957Z,22.30
2022-09-09T11:20:03.093Z,22.30
2022-09-09T11:21:03.134Z,22.40
2022-09-09T11:22:03.217Z,22.40
2022-09-09T11:23:03.204Z,22.40
2022-09-09T11:24:03.323Z,22.40
2022-09-09T11:25:03.340Z,22.30
2022-09-09T11:26:03.350Z,22.40
2022-09-09T11:27:03.400Z,22.30
2022-09-09T11:28:03.439Z,22.30
2022-09-09T11:29:04.835Z,22.30
2022-09-09T11:30:03.543Z,22.30
2022-09-09T11:31:03.498Z,22.30
2022-09-09T11:32:03.460Z,22.30
2022-09-09T11:33:03.459Z,22.30
2022-09-09T11:34:02.670Z,22.30
2022-09-09T11:35:02.625Z,22.40
2022-09-09T11:36:03.261Z,22.40
2022-09-09T11:37:02.688Z,22.40
2022-09-09T11:38:02.715Z,22.40
2022-09-09T11:39:02.721Z,22.50
2022-09-09T11:40:02.705Z,22.50
2022-09-09T11:41:03.345Z,22.50
2022-09-09T11:42:03.346Z,22.50
2022-09-09T11:43:03.315Z,22.60
2022-09-09T11:44:03.371Z,22.60
2022-09-09T11:45:03.168Z,22.60
2022-09-09T11:46:03.465Z,22.60
2022-09-09T11:47:03.333Z,22.60
2022-09-09T11:48:03.402Z,22.50
2022-09-09T11:49:03.347Z,22.40
2022-09-09T11:50:03.487Z,22.40
2022-09-09T11:51:03.404Z,22.40
2022-09-09T11:52:03.430Z,22.30
2022-09-09T11:53:03.412Z,22.40
2022-09-09T11:54:03.481Z,22.40
2022-09-09T11:55:03.505Z,22.30
2022-09-09T11:56:03.409Z,22.30
2022-09-09T11:57:03.409Z,22.30
2022-09-09T11:58:03.506Z,22.30
2022-09-09T11:59:03.441Z,22.30
2022-09-09T12:00:03.519Z,22.20
2022-09-09T12:01:03.659Z,22.20
2022-09-09T12:02:02.709Z,22.20
2022-09-09T12:03:02.733Z,22.10
2022-09-09T12:04:02.826Z,22.10
2022-09-09T12:05:02.905Z,22.10
2022-09-09T12:06:02.706Z,22.10
2022-09-09T12:07:02.881Z,22.10
2022-09-09T12:08:02.777Z,22.00
2022-09-09T12:09:03.060Z,22.00
2022-09-09T12:10:03.139Z,22.00
2022-09-09T12:11:03.029Z,22.00
2022-09-09T12:12:03.126Z,21.90
2022-09-09T12:13:03.129Z,21.90
2022-09-09T12:14:03.143Z,21.90
2022-09-09T12:15:03.098Z,21.90
2022-09-09T12:16:03.170Z,22.00
2022-09-09T12:17:03.201Z,22.00
2022-09-09T12:18:03.693Z,22.00
2022-09-09T12:19:03.300Z,22.00
2022-09-09T12:20:03.424Z,22.00
2022-09-09T12:21:03.319Z,22.00
2022-09-09T12:22:03.377Z,22.00
2022-09-09T12:23:03.462Z,22.00
2022-09-09T12:24:03.448Z,22.00
2022-09-09T12:25:03.441Z,22.00
2022-09-09T12:26:03.560Z,22.00
2022-09-09T12:27:03.492Z,22.00
2022-09-09T12:28:03.574Z,22.10
2022-09-09T12:29:03.536Z,22.10
2022-09-09T12:30:02.665Z,22.10
2022-09-09T12:31:02.753Z,22.10
2022-09-09T12:32:02.687Z,22.00
2022-09-09T12:33:02.883Z,22.00
2022-09-09T12:34:02.873Z,22.00
2022-09-09T12:35:02.860Z,22.00
2022-09-09T12:36:02.995Z,21.90
2022-09-09T12:37:03.027Z,21.90
2022-09-09T12:38:02.962Z,21.90
2022-09-09T12:39:03.013Z,21.90
2022-09-09T12:40:02.964Z,21.90
2022-09-09T12:41:02.902Z,21.80
2022-09-09T12:42:02.826Z,21.80
2022-09-09T12:43:02.839Z,21.80
2022-09-09T12:44:02.802Z,21.80
2022-09-09T12:45:02.892Z,21.80
2022-09-09T12:46:02.874Z,21.80
2022-09-09T12:47:02.789Z,21.80
2022-09-09T12:48:02.819Z,21.80
2022-09-09T12:49:03.182Z,21.80
2022-09-09T12:50:03.022Z,21.80
2022-09-09T12:51:02.876Z,21.80
2022-09-09T12:52:02.947Z,21.80
2022-09-09T12:53:03.161Z,21.80
2022-09-09T12:54:03.073Z,21.80